createdAt,value
2019-03-05T00:01:47.841Z,89.00
2019-03-05T00:04:18.606Z,89.90
2019-03-05T00:06:49.481Z,90.70
2019-03-05T00:09:23.789Z,91.10
2019-03-05T00:11:54.657Z,91.50
2019-03-05T00:14:26.437Z,91.70
2019-03-05T00:16:57.035Z,92.10
2019-03-05T00:19:27.493Z,92.30
2019-03-05T00:21:57.995Z,93.10
2019-03-05T00:25:17.856Z,93.50
2019-03-05T00:28:19.274Z,93.50
2019-03-05T00:30:59.239Z,93.60
2019-03-05T00:34:20.821Z,93.70
2019-03-05T00:37:01.474Z,93.50
2019-03-05T00:40:22.174Z,93.60
2019-03-05T00:43:02.320Z,93.80
2019-03-05T00:45:54.346Z,94.00
2019-03-05T00:48:46.256Z,94.10
2019-03-05T00:51:53.914Z,94.20
2019-03-05T00:55:11.723Z,94.40
2019-03-05T00:57:59.398Z,94.90
2019-03-05T01:00:39.069Z,94.80
2019-03-05T01:03:23.543Z,94.90
2019-03-05T01:06:05.025Z,95.00
2019-03-05T01:08:35.646Z,95.10
2019-03-05T01:11:06.092Z,95.20
2019-03-05T01:13:36.701Z,95.30
2019-03-05T01:16:07.539Z,95.40
2019-03-05T01:18:38.103Z,95.50
2019-03-05T01:21:08.635Z,95.70
2019-03-05T01:23:40.245Z,95.70
2019-03-05T01:26:11.125Z,95.80
2019-03-05T01:28:41.793Z,96.00
2019-03-05T01:31:27.633Z,96.20
2019-03-05T01:34:12.239Z,96.30
2019-03-05T01:36:45.856Z,96.40
2019-03-05T01:39:36.923Z,96.70
2019-03-05T01:42:08.013Z,96.40
2019-03-05T01:44:38.793Z,96.30
2019-03-05T01:47:09.554Z,96.50
2019-03-05T01:49:40.189Z,96.50
2019-03-05T01:52:10.952Z,96.40
2019-03-05T01:54:41.607Z,96.40
2019-03-05T01:57:12.159Z,96.60
2019-03-05T01:59:42.728Z,96.70
2019-03-05T02:02:13.377Z,96.60
2019-03-05T02:04:44.144Z,96.70
2019-03-05T02:07:14.808Z,96.70
2019-03-05T02:09:45.228Z,97.20
2019-03-05T02:12:15.712Z,96.90
2019-03-05T02:14:46.245Z,96.90
2019-03-05T02:17:16.922Z,96.90
2019-03-05T02:19:49.098Z,97.00
2019-03-05T02:22:37.730Z,97.10
2019-03-05T02:25:38.661Z,97.10
2019-03-05T02:28:22.855Z,97.10
2019-03-05T02:31:23.699Z,97.10
2019-03-05T02:34:31.452Z,96.90
2019-03-05T02:37:51.945Z,97.00
2019-03-05T02:41:04.733Z,96.80
2019-03-05T02:44:15.358Z,96.90
2019-03-05T02:47:15.516Z,97.00
2019-03-05T02:50:41.609Z,97.00
2019-03-05T02:54:05.334Z,96.90
2019-03-05T02:57:03.228Z,96.90
2019-03-05T02:59:33.675Z,97.10
2019-03-05T03:02:29.168Z,97.10
2019-03-05T03:05:11.777Z,97.10
2019-03-05T03:07:42.992Z,97.10
2019-03-05T03:10:19.929Z,97.20
2019-03-05T03:12:50.420Z,97.30
2019-03-05T03:15:21.196Z,97.50
2019-03-05T03:17:51.885Z,97.40
2019-03-05T03:20:23.630Z,97.40
2019-03-05T03:22:54.188Z,97.40
2019-03-05T03:25:25.249Z,97.50
2019-03-05T03:27:55.857Z,97.40
2019-03-05T03:30:27.593Z,97.50
2019-03-05T03:32:58.336Z,97.50
2019-03-05T03:35:28.938Z,97.50
2019-03-05T03:38:00.543Z,97.40
2019-03-05T03:40:31.020Z,97.20
2019-03-05T03:43:02.066Z,97.30
2019-03-05T03:45:32.497Z,97.10
2019-03-05T03:48:02.968Z,97.10
2019-03-05T03:50:33.480Z,96.90
2019-03-05T03:53:04.350Z,96.70
2019-03-05T03:55:34.841Z,96.80
2019-03-05T03:58:05.654Z,96.80
2019-03-05T04:00:36.379Z,96.70
2019-03-05T04:03:07.089Z,96.70
2019-03-05T04:05:37.929Z,96.50
2019-03-05T04:08:10.532Z,96.60
2019-03-05T04:10:41.565Z,96.70
2019-03-05T04:13:12.161Z,96.40
2019-03-05T04:15:43.515Z,96.50
2019-03-05T04:18:14.284Z,96.50
2019-03-05T04:20:48.651Z,96.30
2019-03-05T04:23:19.530Z,96.40
2019-03-05T04:25:50.726Z,96.30
2019-03-05T04:28:21.521Z,96.30
2019-03-05T04:30:52.302Z,96.10
2019-03-05T04:33:24.334Z,96.10
2019-03-05T04:35:55.168Z,96.20
2019-03-05T04:38:26.783Z,96.20
2019-03-05T04:40:57.728Z,96.10
2019-03-05T04:43:28.483Z,96.20
2019-03-05T04:46:07.725Z,96.10
2019-03-05T04:48:38.469Z,96.20
2019-03-05T04:51:27.929Z,96.30
2019-03-05T04:53:58.489Z,96.00
2019-03-05T04:56:28.965Z,96.40
2019-03-05T04:59:00.344Z,95.90
2019-03-05T05:01:31.110Z,95.90
2019-03-05T05:04:01.904Z,95.90
2019-03-05T05:06:32.598Z,95.90
2019-03-05T05:09:03.385Z,96.40
2019-03-05T05:11:34.579Z,96.10
2019-03-05T05:14:05.515Z,96.20
2019-03-05T05:16:37.333Z,96.30
2019-03-05T05:19:08.154Z,96.50
2019-03-05T05:21:38.590Z,96.40
2019-03-05T05:24:09.402Z,96.50
2019-03-05T05:26:40.246Z,96.60
2019-03-05T05:29:11.074Z,96.50
2019-03-05T05:31:41.887Z,96.20
2019-03-05T05:34:12.577Z,96.20
2019-03-05T05:36:43.284Z,96.00
2019-03-05T05:39:50.311Z,96.20
2019-03-05T05:42:21.588Z,96.40
2019-03-05T05:44:52.585Z,96.20
2019-03-05T05:47:23.698Z,96.30
2019-03-05T05:49:54.473Z,96.30
2019-03-05T05:52:25.230Z,96.50
2019-03-05T05:54:55.956Z,96.60
2019-03-05T05:57:26.534Z,96.50
2019-03-05T05:59:57.199Z,96.60
2019-03-05T06:02:28.024Z,96.60
2019-03-05T06:04:58.540Z,96.50
2019-03-05T06:07:29.395Z,96.50
2019-03-05T06:09:59.919Z,96.40
2019-03-05T06:12:30.905Z,96.50
2019-03-05T06:15:02.107Z,96.40
2019-03-05T06:17:32.910Z,96.50
2019-03-05T06:20:05.333Z,96.40
2019-03-05T06:22:36.355Z,96.50
2019-03-05T06:25:07.575Z,96.40
2019-03-05T06:27:38.092Z,96.50
2019-03-05T06:30:10.539Z,96.40
2019-03-05T06:32:41.312Z,96.40
2019-03-05T06:35:12.382Z,96.20
2019-03-05T06:37:43.023Z,96.20
2019-03-05T06:40:15.054Z,96.10
2019-03-05T06:42:45.596Z,96.30
2019-03-05T06:45:17.434Z,96.10
2019-03-05T06:47:49.089Z,96.00
2019-03-05T06:50:21.156Z,96.10
2019-03-05T06:52:51.867Z,95.90
2019-03-05T06:55:23.081Z,95.80
2019-03-05T06:57:53.671Z,95.70
2019-03-05T07:00:34.906Z,95.60
2019-03-05T07:03:06.355Z,95.50
2019-03-05T07:06:12.943Z,95.50
2019-03-05T07:08:47.610Z,95.60
2019-03-05T07:12:12.077Z,95.60
2019-03-05T07:15:41.833Z,95.40
2019-03-05T07:18:23.638Z,95.50
2019-03-05T07:21:23.036Z,95.70
2019-03-05T07:24:25.044Z,95.70
2019-03-05T07:26:55.591Z,95.80
2019-03-05T07:29:26.293Z,95.80
2019-03-05T07:31:57.130Z,95.70
2019-03-05T07:34:29.719Z,95.60
2019-03-05T07:37:01.361Z,95.80
2019-03-05T07:39:32.419Z,95.90
2019-03-05T07:42:03.517Z,95.80
2019-03-05T07:44:34.351Z,95.80
2019-03-05T07:47:05.585Z,95.60
2019-03-05T07:49:43.751Z,95.60
2019-03-05T07:52:11.539Z,95.20
2019-03-05T07:54:42.475Z,95.10
2019-03-05T07:57:14.246Z,95.30
2019-03-05T07:59:44.870Z,95.40
2019-03-05T08:02:15.814Z,95.10
2019-03-05T08:04:46.922Z,95.00
2019-03-05T08:07:17.858Z,95.00
2019-03-05T08:09:48.656Z,94.90
2019-03-05T08:12:25.196Z,95.00
2019-03-05T08:15:18.760Z,94.70
2019-03-05T08:17:49.306Z,94.70
2019-03-05T08:20:20.202Z,94.50
2019-03-05T08:22:51.150Z,94.30
2019-03-05T08:25:22.148Z,94.40
2019-03-05T08:27:53.017Z,94.50
2019-03-05T08:30:24.022Z,94.30
2019-03-05T08:32:54.700Z,94.20
2019-03-05T08:35:25.386Z,94.10
2019-03-05T08:37:56.057Z,94.20
2019-03-05T08:40:26.821Z,94.30
2019-03-05T08:42:57.685Z,94.10
2019-03-05T08:45:29.752Z,94.30
2019-03-05T08:48:00.762Z,94.30
2019-03-05T08:50:31.589Z,94.40
2019-03-05T08:53:02.355Z,94.40
2019-03-05T08:55:33.045Z,94.50
2019-03-05T08:58:03.741Z,94.50
2019-03-05T09:00:34.558Z,94.60
2019-03-05T09:03:05.585Z,94.70
2019-03-05T09:05:36.435Z,94.90
2019-03-05T09:08:07.359Z,94.70
2019-03-05T09:10:37.867Z,94.40
2019-03-05T09:13:09.769Z,94.20
2019-03-05T09:15:40.331Z,94.20
2019-03-05T09:18:23.504Z,93.80
2019-03-05T09:20:54.461Z,94.00
2019-03-05T09:23:25.111Z,94.00
2019-03-05T09:25:55.763Z,94.10
2019-03-05T09:28:26.681Z,94.00
2019-03-05T09:30:57.171Z,94.00
2019-03-05T09:33:27.962Z,93.90
2019-03-05T09:35:58.848Z,93.50
2019-03-05T09:38:29.683Z,93.70
2019-03-05T09:41:00.441Z,93.60
2019-03-05T09:43:31.358Z,93.50
2019-03-05T09:46:01.988Z,93.80
2019-03-05T09:48:32.618Z,93.30
2019-03-05T09:51:03.106Z,93.20
2019-03-05T09:53:33.738Z,92.90
2019-03-05T09:56:06.497Z,93.10
2019-03-05T09:58:36.981Z,92.70
2019-03-05T10:01:07.786Z,93.10
2019-03-05T10:03:38.681Z,93.20
2019-03-05T10:06:09.490Z,92.70
2019-03-05T10:08:40.124Z,92.50
2019-03-05T10:11:10.922Z,92.00
2019-03-05T10:13:41.502Z,92.20
2019-03-05T10:16:12.107Z,92.20
2019-03-05T10:18:42.677Z,93.00
2019-03-05T10:21:14.251Z,93.00
2019-03-05T10:23:45.813Z,93.10
2019-03-05T10:26:18.522Z,93.10
2019-03-05T10:28:48.666Z,93.40
2019-03-05T10:31:19.669Z,93.50
2019-03-05T10:33:50.790Z,93.50
2019-03-05T10:36:21.435Z,93.40
2019-03-05T10:38:57.178Z,93.50
2019-03-05T10:41:24.617Z,93.50
2019-03-05T10:43:55.431Z,93.40
2019-03-05T10:46:26.001Z,93.60
2019-03-05T10:48:56.631Z,93.90
2019-03-05T10:51:27.838Z,94.10
2019-03-05T10:53:58.924Z,94.10
2019-03-05T10:56:29.686Z,94.60
2019-03-05T10:59:00.434Z,94.70
2019-03-05T11:01:31.234Z,94.60
2019-03-05T11:04:01.771Z,94.80
2019-03-05T11:06:32.919Z,95.20
2019-03-05T11:09:04.532Z,94.70
2019-03-05T11:11:36.883Z,94.80
2019-03-05T11:14:08.105Z,94.70
2019-03-05T11:16:38.848Z,94.50
2019-03-05T11:19:09.853Z,94.90
2019-03-05T11:21:40.916Z,94.90
2019-03-05T11:24:12.566Z,95.10
2019-03-05T11:26:43.348Z,95.60
2019-03-05T11:29:14.448Z,95.90
2019-03-05T11:31:45.374Z,96.40
2019-03-05T11:34:16.217Z,96.80
2019-03-05T11:36:46.988Z,97.00
2019-03-05T11:39:17.763Z,97.00
2019-03-05T11:41:48.594Z,97.20
2019-03-05T11:44:19.272Z,97.60
2019-03-05T11:46:49.926Z,97.70
2019-03-05T11:49:21.030Z,97.50
2019-03-05T11:51:51.631Z,97.60
2019-03-05T11:54:22.380Z,97.80
2019-03-05T11:56:52.938Z,97.50
2019-03-05T11:59:23.560Z,97.20
2019-03-05T12:01:54.460Z,97.20
2019-03-05T12:04:25.396Z,97.10
2019-03-05T12:06:56.007Z,97.10
2019-03-05T12:09:26.586Z,97.20
2019-03-05T12:11:57.617Z,97.30
2019-03-05T12:14:28.549Z,97.10
2019-03-05T12:16:59.237Z,96.50
2019-03-05T12:19:30.054Z,96.70
2019-03-05T12:22:01.563Z,97.10
2019-03-05T12:24:32.319Z,97.00
2019-03-05T12:27:03.250Z,97.00
2019-03-05T12:29:33.685Z,97.10
2019-03-05T12:32:04.129Z,97.10
2019-03-05T12:34:34.773Z,97.30
2019-03-05T12:37:05.223Z,97.50
2019-03-05T12:39:35.847Z,97.60
2019-03-05T12:42:06.533Z,97.60
2019-03-05T12:44:37.481Z,97.80
2019-03-05T12:47:08.116Z,97.70
2019-03-05T12:49:38.902Z,97.80
2019-03-05T12:52:09.844Z,97.80
2019-03-05T12:54:40.618Z,98.00
2019-03-05T12:57:11.276Z,98.20
2019-03-05T12:59:41.976Z,98.50
2019-03-05T13:02:12.657Z,98.50
2019-03-05T13:04:43.510Z,98.40
2019-03-05T13:07:17.626Z,98.40
2019-03-05T13:09:46.563Z,98.40
2019-03-05T13:12:17.083Z,98.50
2019-03-05T13:14:47.936Z,98.40
2019-03-05T13:17:19.190Z,98.30
2019-03-05T13:19:49.996Z,98.20
2019-03-05T13:22:20.659Z,98.10
2019-03-05T13:24:52.361Z,97.80
2019-03-05T13:27:23.790Z,97.80
2019-03-05T13:29:54.501Z,98.10
2019-03-05T13:32:25.076Z,98.30
2019-03-05T13:34:55.786Z,98.20
2019-03-05T13:37:28.547Z,98.20
2019-03-05T13:40:00.774Z,98.10
2019-03-05T13:42:33.263Z,97.80
2019-03-05T13:45:08.689Z,97.30
2019-03-05T13:47:41.745Z,97.30
2019-03-05T13:50:31.000Z,97.20
2019-03-05T13:54:01.375Z,96.60
2019-03-05T13:56:57.037Z,96.30
2019-03-05T13:59:37.663Z,96.20
2019-03-05T14:02:09.265Z,96.20
2019-03-05T14:04:52.341Z,96.00
2019-03-05T14:08:18.173Z,95.80
2019-03-05T14:10:48.940Z,95.10
2019-03-05T14:13:19.742Z,94.60
2019-03-05T14:15:50.177Z,93.60
2019-03-05T14:18:20.838Z,94.00
2019-03-05T14:20:51.617Z,93.70
2019-03-05T14:23:22.287Z,93.60
2019-03-05T14:25:53.849Z,93.70
2019-03-05T14:28:24.828Z,93.30
2019-03-05T14:30:55.451Z,92.80
2019-03-05T14:33:26.319Z,92.90
2019-03-05T14:35:57.357Z,92.80
2019-03-05T14:38:28.561Z,92.90
2019-03-05T14:40:59.529Z,92.90
2019-03-05T14:43:30.220Z,92.80
2019-03-05T14:46:01.373Z,93.20
2019-03-05T14:48:32.485Z,92.40
2019-03-05T14:51:03.055Z,92.30
2019-03-05T14:53:33.932Z,92.10
2019-03-05T14:56:11.244Z,92.00
2019-03-05T14:58:41.945Z,92.00
2019-03-05T15:01:12.707Z,92.00
2019-03-05T15:03:43.476Z,91.90
2019-03-05T15:06:15.021Z,91.90
2019-03-05T15:08:45.825Z,91.80
2019-03-05T15:11:16.636Z,91.60
2019-03-05T15:13:47.363Z,91.80
2019-03-05T15:16:17.933Z,91.90
2019-03-05T15:18:48.795Z,91.60
2019-03-05T15:21:19.645Z,91.70
2019-03-05T15:23:50.369Z,92.00
2019-03-05T15:26:20.951Z,92.00
2019-03-05T15:28:56.366Z,92.10
2019-03-05T15:31:23.919Z,92.20
2019-03-05T15:33:54.547Z,92.20
2019-03-05T15:36:25.351Z,92.30
2019-03-05T15:38:56.072Z,92.50
2019-03-05T15:41:27.881Z,92.70
2019-03-05T15:43:58.538Z,92.90
2019-03-05T15:46:29.454Z,93.00
2019-03-05T15:49:00.108Z,93.20
2019-03-05T15:51:39.491Z,93.50
2019-03-05T15:54:10.126Z,93.70
2019-03-05T15:56:41.014Z,93.80
2019-03-05T15:59:55.479Z,94.00
2019-03-05T16:02:26.213Z,94.00
2019-03-05T16:04:56.755Z,94.20
2019-03-05T16:07:27.629Z,94.40
2019-03-05T16:09:58.455Z,94.40
2019-03-05T16:12:29.010Z,94.30
2019-03-05T16:14:59.716Z,94.10
2019-03-05T16:17:32.089Z,94.10
2019-03-05T16:20:03.112Z,94.20
2019-03-05T16:22:34.060Z,94.70
2019-03-05T16:25:05.077Z,95.90
2019-03-05T16:27:36.544Z,96.60
2019-03-05T16:30:10.442Z,96.90
2019-03-05T16:33:03.138Z,97.10
2019-03-05T16:35:51.930Z,96.60
2019-03-05T16:38:45.785Z,96.60
2019-03-05T16:41:30.001Z,96.40
2019-03-05T16:44:23.643Z,96.10
2019-03-05T16:47:16.396Z,96.10
2019-03-05T16:50:15.315Z,96.10
2019-03-05T16:53:02.160Z,96.00
2019-03-05T16:55:54.843Z,96.20
2019-03-05T16:58:43.110Z,96.60
2019-03-05T17:01:39.858Z,96.80
2019-03-05T17:04:29.375Z,97.00
2019-03-05T17:07:17.603Z,97.20
2019-03-05T17:10:13.183Z,97.30
2019-03-05T17:12:44.312Z,97.40
2019-03-05T17:15:14.975Z,97.40
2019-03-05T17:17:45.966Z,97.60
2019-03-05T17:20:17.698Z,97.70
2019-03-05T17:22:48.456Z,97.80
2019-03-05T17:25:19.434Z,97.80
2019-03-05T17:27:50.262Z,97.90
2019-03-05T17:30:22.682Z,97.90
2019-03-05T17:32:53.578Z,98.00
2019-03-05T17:35:24.383Z,97.90
2019-03-05T17:37:55.660Z,97.90
2019-03-05T17:40:26.696Z,98.00
2019-03-05T17:42:57.537Z,97.90
2019-03-05T17:45:28.608Z,97.90
2019-03-05T17:48:00.173Z,97.80
2019-03-05T17:50:31.182Z,97.80
2019-03-05T17:53:02.962Z,97.90
2019-03-05T17:55:34.172Z,97.90
2019-03-05T17:58:05.535Z,97.90
2019-03-05T18:00:36.924Z,97.90
2019-03-05T18:03:09.013Z,98.00
2019-03-05T18:05:39.793Z,98.10
2019-03-05T18:08:10.587Z,98.30
2019-03-05T18:10:41.862Z,98.30
2019-03-05T18:13:13.315Z,98.40
2019-03-05T18:15:45.191Z,98.30
2019-03-05T18:18:16.905Z,98.20
2019-03-05T18:20:47.803Z,98.20
2019-03-05T18:23:18.787Z,98.30
2019-03-05T18:25:49.659Z,98.30
2019-03-05T18:28:20.619Z,98.40
2019-03-05T18:30:51.573Z,98.60
2019-03-05T18:33:22.819Z,98.50
2019-03-05T18:35:58.695Z,98.50
2019-03-05T18:38:31.030Z,98.80
2019-03-05T18:41:02.123Z,98.50
2019-03-05T18:43:34.098Z,98.60
2019-03-05T18:46:05.236Z,98.60
2019-03-05T18:48:35.723Z,98.70
2019-03-05T18:51:06.555Z,98.80
2019-03-05T18:53:37.617Z,98.90
2019-03-05T18:56:08.295Z,99.00
2019-03-05T18:58:39.415Z,99.40
2019-03-05T19:01:10.697Z,99.60
2019-03-05T19:03:43.074Z,99.20
2019-03-05T19:06:13.888Z,99.30
2019-03-05T19:08:44.982Z,99.30
2019-03-05T19:11:18.392Z,99.30
2019-03-05T19:13:50.884Z,99.30
2019-03-05T19:16:21.772Z,99.20
2019-03-05T19:18:53.858Z,99.10
2019-03-05T19:21:24.714Z,98.90
2019-03-05T19:23:55.458Z,98.70
2019-03-05T19:26:26.773Z,98.60
2019-03-05T19:28:58.173Z,98.60
2019-03-05T19:31:29.173Z,98.50
2019-03-05T19:34:00.229Z,98.30
2019-03-05T19:36:30.967Z,98.20
2019-03-05T19:39:01.856Z,98.30
2019-03-05T19:41:34.512Z,98.10
2019-03-05T19:44:05.998Z,98.30
2019-03-05T19:46:37.456Z,98.40
2019-03-05T19:49:08.771Z,98.50
2019-03-05T19:51:39.959Z,98.60
2019-03-05T19:54:11.153Z,98.50
2019-03-05T19:56:42.239Z,99.20
2019-03-05T19:59:13.207Z,99.50
2019-03-05T20:01:46.946Z,98.40
2019-03-05T20:04:18.291Z,98.50
2019-03-05T20:06:49.514Z,98.50
2019-03-05T20:09:24.107Z,98.70
2019-03-05T20:11:54.929Z,98.80
2019-03-05T20:14:25.919Z,98.90
2019-03-05T20:16:57.140Z,99.00
2019-03-05T20:19:27.985Z,99.20
2019-03-05T20:21:58.830Z,99.30
2019-03-05T20:24:29.679Z,99.40
2019-03-05T20:27:00.977Z,99.60
2019-03-05T20:29:31.975Z,99.70
2019-03-05T20:32:03.110Z,99.80
2019-03-05T20:34:34.183Z,99.90
2019-03-05T20:37:05.109Z,99.90
2019-03-05T20:39:35.982Z,99.90
2019-03-05T20:42:07.485Z,99.90
2019-03-05T20:44:38.354Z,99.90
2019-03-05T20:47:10.722Z,99.90
2019-03-05T20:49:43.856Z,99.90
2019-03-05T20:52:15.050Z,99.90
2019-03-05T20:54:45.691Z,99.90
2019-03-05T20:57:18.190Z,99.90
2019-03-05T20:59:48.956Z,99.90
2019-03-05T21:02:20.327Z,99.90
2019-03-05T21:04:51.783Z,99.90
2019-03-05T21:07:22.466Z,99.90
2019-03-05T21:09:53.447Z,99.90
2019-03-05T21:12:24.327Z,99.90
2019-03-05T21:14:58.077Z,99.90
2019-03-05T21:17:28.794Z,99.90
2019-03-05T21:19:59.714Z,99.90
2019-03-05T21:22:30.907Z,99.90
2019-03-05T21:25:04.301Z,99.90
2019-03-05T21:27:35.130Z,99.90
2019-03-05T21:30:07.431Z,99.90
2019-03-05T21:32:38.639Z,99.90
2019-03-05T21:35:10.300Z,99.90
2019-03-05T21:37:41.265Z,99.90
2019-03-05T21:40:15.626Z,99.90
2019-03-05T21:42:46.742Z,99.90
2019-03-05T21:45:20.063Z,99.90
2019-03-05T21:47:50.846Z,99.90
2019-03-05T21:50:23.171Z,99.90
2019-03-05T21:52:54.362Z,99.90
2019-03-05T21:55:25.291Z,99.90
2019-03-05T21:57:57.664Z,99.90
2019-03-05T22:00:29.623Z,99.90
2019-03-05T22:03:00.866Z,99.90
2019-03-05T22:05:32.846Z,99.90
2019-03-05T22:08:03.725Z,99.90
2019-03-05T22:10:34.884Z,99.90
2019-03-05T22:13:05.904Z,99.90
2019-03-05T22:15:36.810Z,99.90
2019-03-05T22:18:07.402Z,99.90
2019-03-05T22:20:37.920Z,99.90
2019-03-05T22:23:08.528Z,99.90
2019-03-05T22:25:39.094Z,99.90
2019-03-05T22:28:09.980Z,99.90
2019-03-05T22:30:40.751Z,99.90
2019-03-05T22:33:12.822Z,99.90
2019-03-05T22:35:43.488Z,99.90
2019-03-05T22:38:14.358Z,99.90
2019-03-05T22:40:45.081Z,99.90
2019-03-05T22:43:15.624Z,99.90
2019-03-05T22:45:46.453Z,99.90
2019-03-05T22:48:17.114Z,99.90
2019-03-05T22:50:47.704Z,99.90
2019-03-05T22:53:18.244Z,99.90
2019-03-05T22:55:48.969Z,99.90
2019-03-05T22:58:19.512Z,99.90
2019-03-05T23:01:13.917Z,99.90
2019-03-05T23:03:55.598Z,99.90
2019-03-05T23:06:26.889Z,99.90
2019-03-05T23:08:58.049Z,99.90
2019-03-05T23:11:29.343Z,99.90
2019-03-05T23:13:59.926Z,99.90
2019-03-05T23:16:31.154Z,99.90
2019-03-05T23:19:02.189Z,99.90
2019-03-05T23:21:33.703Z,99.90
2019-03-05T23:24:04.760Z,99.90
2019-03-05T23:26:35.253Z,99.90
2019-03-05T23:29:08.371Z,99.90
2019-03-05T23:31:38.902Z,99.90
2019-03-05T23:34:18.098Z,99.90
2019-03-05T23:36:41.818Z,99.90
2019-03-05T23:39:17.290Z,99.90
2019-03-05T23:41:48.205Z,99.90
2019-03-05T23:44:19.059Z,99.90
2019-03-05T23:46:49.675Z,99.90
2019-03-05T23:49:20.514Z,99.90
2019-03-05T23:51:53.556Z,99.90
2019-03-05T23:54:24.430Z,99.90
2019-03-05T23:56:54.930Z,99.90
2019-03-05T23:59:25.591Z,99.90
